Time;durP1;ratioP1;P1;durP2;ratioP2;P2;SDS_P1;SDS_P2;PMS_P1;PMS_P2;Temp;Humidity;BMP_temperature;BMP_pressure;BME280_temperature;BME280_humidity;BME280_pressure;Samples;Min_cycle;Max_cycle;Signal;HPM_P1;HPM_P2
2023/08/22 07:54:30;;;;;;;;;;;;;;;6.06;100.00;100065.59;5111987;23;19926;-84
2023/08/22 07:56:55;;;;;;;;;;;;;;;6.05;100.00;100068.25;4966397;28;19938;-84
2023/08/22 07:59:20;;;;;;;;;;;;;;;6.04;100.00;100066.53;4973622;28;19922;-84
2023/08/22 08:01:46;;;;;;;;;;;;;;;6.06;100.00;100072.63;4971402;28;19922;-85
2023/08/22 08:04:11;;;;;;;;;;;;;;;6.08;100.00;100068.19;4964751;28;19922;-85
2023/08/22 08:06:36;;;;;;;;;;;;;;;6.18;100.00;100064.50;4974577;28;20060;-85
2023/08/22 08:09:04;;;;;;;;;;;;;;;6.66;100.00;100077.50;4971856;28;20392;-85
2023/08/22 08:11:30;;;;;;;;;;;;;;;7.15;100.00;100077.25;4974542;28;20024;-85
2023/08/22 08:13:55;;;;;;;;;;;;;;;7.42;100.00;100073.94;4974592;28;19992;-86
2023/08/22 08:16:21;;;;;;;;;;;;;;;7.33;100.00;100081.22;4975641;28;19925;-86
2023/08/22 08:18:46;;;;;;;;;;;;;;;6.76;100.00;100072.03;4975109;28;19968;-89
2023/08/22 08:21:12;;;;;;;;;;;;;;;6.64;100.00;100084.56;4974444;28;19933;-85
2023/08/22 08:23:37;;;;;;;;;;;;;;;6.62;100.00;100077.59;4970861;28;20349;-87
2023/08/22 08:26:03;;;;;;;;;;;;;;;6.53;100.00;100076.03;4975627;28;19922;-86
2023/08/22 08:28:29;;;;;;;;;;;;;;;6.90;100.00;100086.59;4973630;28;19926;-86
2023/08/22 08:30:54;;;;;;;;;;;;;;;7.39;100.00;100091.63;4969840;28;19932;-87
2023/08/22 08:33:19;;;;;;;;;;;;;;;7.63;100.00;100082.22;4972884;28;20013;-86
2023/08/22 08:35:44;;;;;;;;;;;;;;;7.80;100.00;100090.56;4970146;28;19926;-86
2023/08/22 08:38:10;;;;;;;;;;;;;;;7.30;100.00;100090.06;4971689;28;19985;-86
2023/08/22 08:40:35;;;;;;;;;;;;;;;6.92;100.00;100091.84;4973919;28;20369;-86
2023/08/22 08:43:04;;;;;;;;;;;;;;;6.89;100.00;100084.91;4972733;28;20292;-87
2023/08/22 08:45:32;;;;;;;;;;;;;;;6.70;100.00;100087.06;4972371;28;20004;-86
2023/08/22 08:47:59;;;;;;;;;;;;;;;6.76;100.00;100087.84;4973175;28;20353;-85
2023/08/22 08:50:25;;;;;;;;;;;;;;;7.21;100.00;100085.91;4975092;28;19926;-86
2023/08/22 08:52:50;;;;;;;;;;;;;;;7.59;100.00;100083.19;4972624;28;19965;-86
2023/08/22 08:55:15;;;;;;;;;;;;;;;7.81;100.00;100087.00;4971470;28;19949;-85
2023/08/22 08:57:41;;;;;;;;;;;;;;;7.63;100.00;100087.50;4969075;28;19926;-85
2023/08/22 09:00:06;;;;;;;;;;;;;;;7.24;100.00;100082.31;4971368;28;19922;-85
2023/08/22 09:02:32;;;;;;;;;;;;;;;7.05;100.00;100081.88;4971345;28;19969;-86
2023/08/22 09:04:57;;;;;;;;;;;;;;;6.98;100.00;100082.94;4971853;28;20036;-84
2023/08/22 09:07:23;;;;;;;;;;;;;;;7.56;100.00;100081.53;4973519;28;19945;-86
2023/08/22 09:09:48;;;;;;;;;;;;;;;7.89;100.00;100088.56;4973492;28;20370;-85
2023/08/22 09:12:14;;;;;;;;;;;;;;;8.07;100.00;100085.41;4973140;28;19937;-89
2023/08/22 09:14:40;;;;;;;;;;;;;;;7.67;100.00;100086.50;4972068;28;19929;-84
2023/08/22 09:17:06;;;;;;;;;;;;;;;7.50;100.00;100089.59;4972715;28;19926;-86
2023/08/22 09:19:32;;;;;;;;;;;;;;;7.92;100.00;100083.22;4973266;28;20435;-83
2023/08/22 09:22:01;;;;;;;;;;;;;;;8.16;100.00;100087.81;4988991;28;19922;-86
2023/08/22 09:24:29;;;;;;;;;;;;;;;8.31;100.00;100085.63;4971633;28;19926;-86
2023/08/22 09:26:55;;;;;;;;;;;;;;;7.65;100.00;100085.69;4972471;28;20020;-83
2023/08/22 09:29:30;;;;;;;;;;;;;;;7.92;100.00;100091.13;4971772;28;20354;-89
2023/08/22 09:31:57;;;;;;;;;;;;;;;8.22;100.00;100091.16;4972821;28;19922;-91
2023/08/22 09:34:22;;;;;;;;;;;;;;;8.34;100.00;100086.44;4971329;28;19922;-86
2023/08/22 09:36:48;;;;;;;;;;;;;;;7.73;100.00;100086.34;4972431;28;19932;-85
2023/08/22 09:39:16;;;;;;;;;;;;;;;7.46;100.00;100091.41;4971601;28;19923;-89
2023/08/22 09:41:41;;;;;;;;;;;;;;;7.43;100.00;100080.94;4973371;28;19918;-87
2023/08/22 09:44:08;;;;;;;;;;;;;;;7.87;100.00;100080.69;4972083;28;19925;-85
2023/08/22 09:46:35;;;;;;;;;;;;;;;8.15;100.00;100079.94;4970792;28;19930;-86
2023/08/22 09:49:01;;;;;;;;;;;;;;;17.03;100.00;100081.59;4971113;28;20054;-86
2023/08/22 09:51:27;;;;;;;;;;;;;;;11.00;100.00;100067.66;4971581;28;19929;-86
2023/08/22 09:53:59;;;;;;;;;;;;;;;10.07;100.00;100082.63;4972095;28;19922;-86
2023/08/22 09:56:24;;;;;;;;;;;;;;;9.76;100.00;100086.38;4969293;28;19926;-86
2023/08/22 09:58:51;;;;;;;;;;;;;;;8.89;100.00;100078.66;4970218;28;19926;-85
2023/08/22 10:01:18;;;;;;;;;;;;;;;8.82;100.00;100081.50;4972739;28;19933;-87
2023/08/22 10:03:47;;;;;;;;;;;;;;;8.99;100.00;100081.00;4971296;28;19929;-85
2023/08/22 10:06:13;;;;;;;;;;;;;;;9.07;100.00;100084.25;4971200;28;19929;-84
2023/08/22 10:08:40;;;;;;;;;;;;;;;8.78;100.00;100083.41;4971365;28;19926;-85
2023/08/22 10:11:07;;;;;;;;;;;;;;;8.39;100.00;100081.00;4969729;28;19922;-85
2023/08/22 10:13:33;;;;;;;;;;;;;;;8.77;100.00;100084.31;4972167;28;20296;-85
2023/08/22 10:16:02;;;;;;;;;;;;;;;8.93;100.00;100083.84;4972834;28;19928;-85
2023/08/22 10:18:28;;;;;;;;;;;;;;;8.76;100.00;100077.31;4971584;28;19976;-86
2023/08/22 10:20:53;;;;;;;;;;;;;;;8.13;100.00;100077.31;4982309;28;20321;-83
2023/08/22 10:23:38;;;;;;;;;;;;;;;7.94;100.00;100070.84;4971006;28;19961;-86
2023/08/22 10:26:04;;;;;;;;;;;;;;;8.37;100.00;100061.69;4987797;28;19922;-85
2023/08/22 10:28:30;;;;;;;;;;;;;;;8.61;100.00;100075.97;4972177;28;19946;-85
2023/08/22 10:31:02;;;;;;;;;;;;;;;8.72;100.00;100065.94;4971775;28;19925;-85
2023/08/22 10:33:28;;;;;;;;;;;;;;;8.06;100.00;100056.44;4987642;28;19918;-85
2023/08/22 10:36:26;;;;;;;;;;;;;;;7.83;100.00;100063.22;4968780;28;19930;-85
2023/08/22 10:38:56;;;;;;;;;;;;;;;8.33;100.00;100060.94;4937206;28;19922;-86
2023/08/22 10:41:42;;;;;;;;;;;;;;;8.58;100.00;100056.72;4987203;28;19918;-85
2023/08/22 10:44:14;;;;;;;;;;;;;;;8.82;100.00;100055.09;4969115;28;19969;-85
2023/08/22 10:47:01;;;;;;;;;;;;;;;8.33;100.00;100058.28;4970674;28;19934;-84
2023/08/22 10:49:30;;;;;;;;;;;;;;;8.37;100.00;100059.06;4970666;28;20008;-89
2023/08/22 10:51:59;;;;;;;;;;;;;;;8.67;100.00;100056.44;4985789;28;19922;-85
2023/08/22 10:54:25;;;;;;;;;;;;;;;8.82;100.00;100052.44;4969029;28;19953;-85
2023/08/22 10:57:10;;;;;;;;;;;;;;;8.59;100.00;100054.03;4969774;28;19926;-85
2023/08/22 10:59:52;;;;;;;;;;;;;;;8.30;100.00;100050.47;4968889;28;19918;-86
2023/08/22 11:02:17;;;;;;;;;;;;;;;8.68;100.00;100058.16;4971371;28;19997;-86
2023/08/22 11:04:43;;;;;;;;;;;;;;;8.80;100.00;100051.66;4970492;28;19926;-85
2023/08/22 11:07:10;;;;;;;;;;;;;;;8.78;100.00;100051.69;4970881;28;19918;-88
2023/08/22 11:09:35;;;;;;;;;;;;;;;8.08;100.00;100050.22;4967531;28;19950;-86
2023/08/22 11:12:01;;;;;;;;;;;;;;;7.85;100.00;100049.97;4972233;28;20337;-86
2023/08/22 11:14:26;;;;;;;;;;;;;;;7.99;100.00;100040.78;4970292;28;19922;-86
2023/08/22 11:16:51;;;;;;;;;;;;;;;8.44;100.00;100047.44;4969887;28;20012;-85
2023/08/22 11:19:17;;;;;;;;;;;;;;;8.64;100.00;100048.63;4971475;28;20017;-85
2023/08/22 11:21:42;;;;;;;;;;;;;;;8.71;100.00;100058.06;4972022;28;19926;-86
2023/08/22 11:24:08;;;;;;;;;;;;;;;8.20;100.00;100043.72;4971770;28;19922;-87
2023/08/22 11:26:33;;;;;;;;;;;;;;;8.20;100.00;100051.66;4974656;28;19941;-86
2023/08/22 11:29:04;;;;;;;;;;;;;;;8.50;100.00;100051.66;4974577;28;19918;-93
2023/08/22 11:31:30;;;;;;;;;;;;;;;8.71;100.00;100051.03;4974754;28;19918;-87
2023/08/22 11:33:56;;;;;;;;;;;;;;;8.39;100.00;100041.38;4975138;28;20296;-86
2023/08/22 11:36:21;;;;;;;;;;;;;;;7.96;100.00;100042.63;4975635;28;19914;-87
2023/08/22 11:38:47;;;;;;;;;;;;;;;7.78;100.00;100039.59;4973013;28;19928;-87
2023/08/22 11:41:13;;;;;;;;;;;;;;;7.58;100.00;100036.66;4974279;28;19972;-87
2023/08/22 11:43:45;;;;;;;;;;;;;;;7.61;100.00;100028.63;4974038;28;19918;-86
2023/08/22 11:46:10;;;;;;;;;;;;;;;7.55;100.00;100027.03;4974513;28;19981;-86
2023/08/22 11:48:36;;;;;;;;;;;;;;;7.43;100.00;100028.22;4974368;28;19922;-85
2023/08/22 11:51:01;;;;;;;;;;;;;;;7.45;100.00;100018.50;4973735;28;19932;-85
2023/08/22 11:53:30;;;;;;;;;;;;;;;7.41;100.00;100024.75;4989435;28;19953;-86
2023/08/22 11:55:56;;;;;;;;;;;;;;;8.03;100.00;100024.88;4974375;28;20045;-85
2023/08/22 11:58:21;;;;;;;;;;;;;;;8.33;100.00;100025.75;4974768;28;20013;-86
2023/08/22 12:00:46;;;;;;;;;;;;;;;8.43;100.00;100026.34;4975567;28;19929;-86
2023/08/22 12:03:12;;;;;;;;;;;;;;;7.98;100.00;100023.22;4974596;28;19922;-86
2023/08/22 12:05:44;;;;;;;;;;;;;;;8.16;100.00;100021.81;4974652;28;20293;-86
2023/08/22 12:08:12;;;;;;;;;;;;;;;8.47;100.00;100034.16;4974472;28;19924;-85
2023/08/22 12:10:37;;;;;;;;;;;;;;;8.54;100.00;100034.81;4973654;28;19930;-86
2023/08/22 12:13:03;;;;;;;;;;;;;;;8.04;100.00;100027.47;4973298;28;19926;-86
2023/08/22 12:15:28;;;;;;;;;;;;;;;7.73;100.00;100016.91;4974391;28;19918;-87
2023/08/22 12:17:53;;;;;;;;;;;;;;;7.46;100.00;100020.22;4975786;28;19929;-87
2023/08/22 12:20:18;;;;;;;;;;;;;;;7.40;100.00;100016.88;4974103;28;19926;-86
2023/08/22 12:22:44;;;;;;;;;;;;;;;7.30;100.00;100018.91;4972190;28;20369;-86
2023/08/22 12:25:11;;;;;;;;;;;;;;;7.43;100.00;100017.66;4975765;28;20814;-85
2023/08/22 12:27:37;;;;;;;;;;;;;;;7.30;100.00;100021.53;4972230;28;19969;-86
2023/08/22 12:30:02;;;;;;;;;;;;;;;7.26;100.00;100014.63;4968255;28;19968;-86
2023/08/22 12:32:27;;;;;;;;;;;;;;;7.19;100.00;100007.75;4970120;28;19976;-87
2023/08/22 12:34:53;;;;;;;;;;;;;;;7.17;100.00;100006.94;4974300;28;19929;-86
2023/08/22 12:37:18;;;;;;;;;;;;;;;7.21;100.00;100003.31;4972032;28;19918;-85
2023/08/22 12:39:44;;;;;;;;;;;;;;;7.23;100.00;100006.78;4971300;28;19926;-85
2023/08/22 12:42:09;;;;;;;;;;;;;;;7.17;100.00;100004.31;4971308;28;20504;-86
2023/08/22 12:44:34;;;;;;;;;;;;;;;7.52;100.00;100006.03;4979384;28;19922;-86
2023/08/22 12:46:59;;;;;;;;;;;;;;;7.94;100.00;100015.44;4973244;28;19926;-87
2023/08/22 12:49:25;;;;;;;;;;;;;;;8.19;100.00;100012.94;4975146;28;19918;-86
2023/08/22 12:51:50;;;;;;;;;;;;;;;7.88;100.00;100010.31;4966797;28;19965;-85
2023/08/22 12:54:15;;;;;;;;;;;;;;;7.45;100.00;100010.59;4982959;28;19929;-84
2023/08/22 12:56:40;;;;;;;;;;;;;;;7.28;100.00;100018.09;4975002;28;19929;-86
2023/08/22 12:59:06;;;;;;;;;;;;;;;7.28;100.00;100012.81;4974845;28;19973;-85
2023/08/22 13:01:31;;;;;;;;;;;;;;;7.08;100.00;100003.66;4973749;28;19918;-85
2023/08/22 13:03:56;;;;;;;;;;;;;;;7.18;100.00;100006.03;4974854;28;19961;-86
2023/08/22 13:06:22;;;;;;;;;;;;;;;7.39;100.00;100005.47;4973492;28;19918;-86
2023/08/22 13:08:47;;;;;;;;;;;;;;;7.95;100.00;100009.25;4973553;28;19937;-86
2023/08/22 13:11:12;;;;;;;;;;;;;;;8.11;100.00;99999.97;4973509;28;19978;-85
2023/08/22 13:13:38;;;;;;;;;;;;;;;8.12;100.00;99993.78;4972729;28;19921;-87
2023/08/22 13:16:03;;;;;;;;;;;;;;;7.60;100.00;99992.63;4973121;28;19918;-85
2023/08/22 13:18:29;;;;;;;;;;;;;;;7.32;100.00;99995.13;4972677;28;19922;-85
2023/08/22 13:20:54;;;;;;;;;;;;;;;7.46;100.00;99996.50;4973216;28;19918;-86
2023/08/22 13:23:19;;;;;;;;;;;;;;;7.26;100.00;99993.53;4972393;28;20405;-85
2023/08/22 13:25:44;;;;;;;;;;;;;;;7.18;100.00;99992.84;4974256;28;19953;-86
2023/08/22 13:28:10;;;;;;;;;;;;;;;7.23;100.00;99985.72;4970534;28;20370;-85
2023/08/22 13:30:35;;;;;;;;;;;;;;;7.74;100.00;99985.19;4973039;28;20439;-89
2023/08/22 13:33:00;;;;;;;;;;;;;;;8.02;100.00;99986.19;4967149;28;19919;-85
2023/08/22 13:35:26;;;;;;;;;;;;;;;8.29;100.00;99987.13;4973232;28;19922;-85
2023/08/22 13:37:52;;;;;;;;;;;;;;;7.85;100.00;99977.00;4973164;28;19918;-87
2023/08/22 13:40:17;;;;;;;;;;;;;;;7.54;100.00;99976.97;4970480;28;19926;-87
2023/08/22 13:42:43;;;;;;;;;;;;;;;7.37;100.00;99970.41;4973361;28;19929;-90
2023/08/22 13:45:10;;;;;;;;;;;;;;;7.24;100.00;99963.69;4973393;28;20288;-85
2023/08/22 13:47:37;;;;;;;;;;;;;;;7.25;100.00;99970.72;4973324;28;19940;-85
2023/08/22 13:50:02;;;;;;;;;;;;;;;7.20;100.00;99965.56;4972264;28;19926;-85
2023/08/22 13:52:28;;;;;;;;;;;;;;;7.75;100.00;99970.22;4969191;28;19930;-88
2023/08/22 13:54:54;;;;;;;;;;;;;;;8.04;100.00;99966.78;4972545;28;20340;-89
2023/08/22 13:57:19;;;;;;;;;;;;;;;8.29;100.00;99964.22;4972905;28;19922;-87
2023/08/22 13:59:44;;;;;;;;;;;;;;;7.93;100.00;99972.34;4973917;28;20013;-88
2023/08/22 14:02:09;;;;;;;;;;;;;;;7.56;100.00;99968.13;4973743;28;19973;-86
2023/08/22 14:04:35;;;;;;;;;;;;;;;7.59;100.00;99964.53;4973715;28;19968;-86
2023/08/22 14:07:00;;;;;;;;;;;;;;;8.03;100.00;99962.41;4972831;28;19933;-85
2023/08/22 14:09:25;;;;;;;;;;;;;;;8.27;100.00;99968.72;4971566;28;19969;-87
2023/08/22 14:11:50;;;;;;;;;;;;;;;8.24;100.00;99965.31;4972041;28;19922;-86
2023/08/22 14:14:16;;;;;;;;;;;;;;;7.66;100.00;99955.53;4971818;28;20331;-88
2023/08/22 14:16:41;;;;;;;;;;;;;;;7.50;100.00;99951.59;4972034;28;19925;-85
2023/08/22 14:19:07;;;;;;;;;;;;;;;7.73;100.00;99957.09;4973501;28;19918;-86
2023/08/22 14:21:32;;;;;;;;;;;;;;;8.16;100.00;99960.25;4973222;28;19918;-86
2023/08/22 14:23:57;;;;;;;;;;;;;;;8.38;100.00;99960.47;4972313;28;19925;-86
2023/08/22 14:26:23;;;;;;;;;;;;;;;8.10;100.00;99958.66;4973539;28;19918;-86
2023/08/22 14:28:48;;;;;;;;;;;;;;;7.66;100.00;99966.09;4972778;28;20365;-90
2023/08/22 14:31:13;;;;;;;;;;;;;;;7.58;100.00;99953.13;4971047;28;20029;-86
2023/08/22 14:33:38;;;;;;;;;;;;;;;7.46;100.00;99953.44;4970212;28;19929;-87
2023/08/22 14:36:05;;;;;;;;;;;;;;;7.39;100.00;99962.44;4972534;28;19926;-93
2023/08/22 14:38:41;;;;;;;;;;;;;;;7.28;100.00;99955.69;4970723;28;19930;-95
2023/08/22 14:41:07;;;;;;;;;;;;;;;7.42;100.00;99962.38;4988302;28;19968;-86
2023/08/22 14:43:33;;;;;;;;;;;;;;;7.33;100.00;99958.19;4972544;28;19929;-86
2023/08/22 14:45:59;;;;;;;;;;;;;;;7.12;100.00;99958.78;4989067;28;20008;-86
2023/08/22 14:48:25;;;;;;;;;;;;;;;7.19;100.00;99957.69;4989302;28;19922;-86
2023/08/22 14:50:50;;;;;;;;;;;;;;;7.00;100.00;99950.25;4990286;28;20451;-86
2023/08/22 14:53:16;;;;;;;;;;;;;;;6.94;100.00;99953.06;4988351;28;19924;-86
2023/08/22 14:55:53;;;;;;;;;;;;;;;6.98;100.00;99951.22;4990093;28;19941;-87
2023/08/22 14:58:19;;;;;;;;;;;;;;;6.91;100.00;99955.78;4977006;28;19926;-86
2023/08/22 15:00:44;;;;;;;;;;;;;;;6.88;100.00;99950.59;4994025;28;19918;-86
2023/08/22 15:03:10;;;;;;;;;;;;;;;6.80;100.00;99950.78;4993598;28;19926;-86
2023/08/22 15:05:35;;;;;;;;;;;;;;;6.82;100.00;99956.84;4984078;28;19922;-86
2023/08/22 15:08:01;;;;;;;;;;;;;;;7.01;100.00;99949.34;4974940;28;19930;-84
2023/08/22 15:10:29;;;;;;;;;;;;;;;6.87;100.00;99951.47;4974723;28;20384;-87
2023/08/22 15:12:54;;;;;;;;;;;;;;;6.75;100.00;99954.41;4991331;28;20289;-86
2023/08/22 15:15:19;;;;;;;;;;;;;;;6.83;100.00;99936.63;4976143;28;19969;-86
2023/08/22 15:17:44;;;;;;;;;;;;;;;6.81;100.00;99946.34;4974112;28;19929;-86
2023/08/22 15:20:10;;;;;;;;;;;;;;;6.71;100.00;99935.19;4974208;28;20834;-86
2023/08/22 15:22:36;;;;;;;;;;;;;;;6.72;100.00;99942.19;4973810;28;19922;-86
2023/08/22 15:25:01;;;;;;;;;;;;;;;6.67;100.00;99934.41;4970495;28;19953;-87
2023/08/22 15:27:26;;;;;;;;;;;;;;;6.81;100.00;99941.09;4972476;28;19937;-85
2023/08/22 15:29:51;;;;;;;;;;;;;;;6.70;100.00;99934.34;4967711;28;19922;-85
2023/08/22 15:32:17;;;;;;;;;;;;;;;6.75;100.00;99938.59;4974334;28;19958;-86
2023/08/22 15:34:42;;;;;;;;;;;;;;;6.75;100.00;99934.22;4974500;28;20317;-86
2023/08/22 15:37:18;;;;;;;;;;;;;;;6.67;100.00;99941.41;4965036;28;19922;-91
2023/08/22 15:39:43;;;;;;;;;;;;;;;6.80;100.00;99934.13;4971822;28;19949;-86
2023/08/22 15:42:08;;;;;;;;;;;;;;;6.56;100.00;99939.06;4974940;28;19969;-85
2023/08/22 15:44:33;;;;;;;;;;;;;;;6.66;100.00;99935.31;4975907;28;19969;-86
2023/08/22 15:46:58;;;;;;;;;;;;;;;6.72;100.00;99935.16;4976365;28;20294;-89
2023/08/22 15:49:24;;;;;;;;;;;;;;;6.63;100.00;99932.75;4976267;28;20013;-86
2023/08/22 15:51:49;;;;;;;;;;;;;;;6.65;100.00;99938.84;4975011;28;19968;-87
2023/08/22 15:54:14;;;;;;;;;;;;;;;7.15;100.00;99929.69;4974857;28;19930;-85
2023/08/22 15:56:40;;;;;;;;;;;;;;;7.42;100.00;99923.69;4974994;28;20388;-86
2023/08/22 15:59:05;;;;;;;;;;;;;;;6.81;100.00;99925.28;4973489;28;20021;-86
2023/08/22 16:01:30;;;;;;;;;;;;;;;6.70;100.00;99921.16;4975980;28;19918;-87
2023/08/22 16:03:56;;;;;;;;;;;;;;;6.63;100.00;99919.56;4972404;28;20010;-87
2023/08/22 16:06:21;;;;;;;;;;;;;;;6.77;100.00;99915.75;4974776;28;20313;-87
2023/08/22 16:08:46;;;;;;;;;;;;;;;6.66;100.00;99916.00;4975726;28;20365;-87
2023/08/22 16:11:12;;;;;;;;;;;;;;;6.50;100.00;99920.78;4976042;28;20337;-86
2023/08/22 16:13:37;;;;;;;;;;;;;;;6.57;100.00;99913.59;4974080;28;19973;-87
2023/08/22 16:16:02;;;;;;;;;;;;;;;6.44;100.00;99915.66;4975600;28;20349;-87
2023/08/22 16:18:28;;;;;;;;;;;;;;;6.45;100.00;99920.03;4974684;28;19918;-85
2023/08/22 16:20:53;;;;;;;;;;;;;;;6.41;100.00;99915.72;4973368;28;19932;-86
2023/08/22 16:23:18;;;;;;;;;;;;;;;6.36;100.00;99913.22;4973414;28;19922;-86
2023/08/22 16:25:43;;;;;;;;;;;;;;;6.43;100.00;99911.28;4973373;28;20416;-85
2023/08/22 16:28:18;;;;;;;;;;;;;;;6.41;100.00;99906.06;4974082;28;20305;-90
2023/08/22 16:30:48;;;;;;;;;;;;;;;6.47;100.00;99915.59;4973098;28;19930;-87
2023/08/22 16:33:13;;;;;;;;;;;;;;;6.50;100.00;99905.84;4974796;28;19922;-86
2023/08/22 16:35:38;;;;;;;;;;;;;;;6.44;100.00;99910.41;4974200;28;19933;-86
2023/08/22 16:38:04;;;;;;;;;;;;;;;6.27;100.00;99914.31;4972247;28;19930;-86
2023/08/22 16:40:29;;;;;;;;;;;;;;;6.40;100.00;99911.34;4975194;28;20012;-86
2023/08/22 16:42:54;;;;;;;;;;;;;;;6.46;100.00;99906.84;4975384;28;19918;-87
2023/08/22 16:45:20;;;;;;;;;;;;;;;6.45;100.00;99904.25;4975098;28;19940;-86
2023/08/22 16:47:45;;;;;;;;;;;;;;;10.44;100.00;99906.50;4974745;28;19928;-87
2023/08/22 16:50:13;;;;;;;;;;;;;;;8.14;100.00;99902.22;4973864;28;20011;-89
2023/08/22 16:52:38;;;;;;;;;;;;;;;7.26;100.00;99893.38;4972967;28;20279;-87
2023/08/22 16:55:04;;;;;;;;;;;;;;;7.11;100.00;99894.66;4974389;28;20442;-86
2023/08/22 16:57:58;;;;;;;;;;;;;;;6.89;100.00;99891.72;4973547;28;20432;-87
2023/08/22 17:00:23;;;;;;;;;;;;;;;6.83;100.00;99890.13;4973728;28;19922;-86
2023/08/22 17:02:48;;;;;;;;;;;;;;;6.91;100.00;99892.56;4974964;28;19994;-87
2023/08/22 17:05:14;;;;;;;;;;;;;;;6.88;100.00;99898.75;4974976;28;19925;-87
2023/08/22 17:07:39;;;;;;;;;;;;;;;6.64;100.00;99905.50;4973634;28;20025;-86
2023/08/22 17:10:08;;;;;;;;;;;;;;;6.58;100.00;99904.81;4974898;28;19918;-86
2023/08/22 17:12:33;;;;;;;;;;;;;;;6.89;100.00;99907.50;4972025;28;19984;-86
2023/08/22 17:14:58;;;;;;;;;;;;;;;6.77;100.00;99905.22;4974846;28;20326;-86
2023/08/22 17:17:24;;;;;;;;;;;;;;;6.79;100.00;99906.03;4974691;28;20017;-86
2023/08/22 17:19:49;;;;;;;;;;;;;;;6.67;100.00;99899.28;4973472;28;20366;-86
2023/08/22 17:22:16;;;;;;;;;;;;;;;6.61;100.00;99910.84;4974640;28;19924;-86
2023/08/22 17:24:42;;;;;;;;;;;;;;;6.29;100.00;99909.84;4969917;28;20414;-86
2023/08/22 17:27:07;;;;;;;;;;;;;;;6.40;100.00;99912.25;4975163;28;19918;-86
2023/08/22 17:29:33;;;;;;;;;;;;;;;6.20;100.00;99915.31;4973545;28;19926;-86
2023/08/22 17:31:59;;;;;;;;;;;;;;;6.07;100.00;99916.53;4973907;28;19927;-86
2023/08/22 17:34:24;;;;;;;;;;;;;;;6.11;100.00;99911.16;4974388;28;19922;-86
2023/08/22 17:36:49;;;;;;;;;;;;;;;6.17;100.00;99910.13;4971793;28;19933;-86
2023/08/22 17:39:16;;;;;;;;;;;;;;;6.14;100.00;99910.19;4969599;28;19926;-90
2023/08/22 17:41:41;;;;;;;;;;;;;;;6.40;100.00;99914.00;4971481;28;20017;-85
2023/08/22 17:44:07;;;;;;;;;;;;;;;6.23;100.00;99914.41;4973892;28;19996;-92
2023/08/22 17:46:32;;;;;;;;;;;;;;;6.25;100.00;99913.44;4971800;28;19929;-86
2023/08/22 17:48:57;;;;;;;;;;;;;;;6.43;100.00;99912.19;4972836;28;19986;-86
2023/08/22 17:51:23;;;;;;;;;;;;;;;6.27;100.00;99910.78;4973389;28;19925;-86
2023/08/22 17:53:48;;;;;;;;;;;;;;;6.28;100.00;99909.91;4972703;28;20332;-86
2023/08/22 17:56:15;;;;;;;;;;;;;;;6.23;100.00;99907.38;4970610;28;19933;-85
2023/08/22 17:58:43;;;;;;;;;;;;;;;6.08;100.00;99910.34;4971926;28;19970;-86
2023/08/22 18:01:08;;;;;;;;;;;;;;;6.08;100.00;99915.59;4971662;28;19965;-86
2023/08/22 18:03:34;;;;;;;;;;;;;;;6.15;100.00;99920.69;4973678;28;20341;-86
2023/08/22 18:06:03;;;;;;;;;;;;;;;6.11;100.00;99912.91;4972712;28;19974;-86
2023/08/22 18:08:29;;;;;;;;;;;;;;;6.07;100.00;99900.72;4970536;28;19929;-86
2023/08/22 18:10:54;;;;;;;;;;;;;;;6.04;100.00;99909.53;4972282;28;19926;-86
2023/08/22 18:13:20;;;;;;;;;;;;;;;6.04;100.00;99917.44;4972856;28;19922;-86
2023/08/22 18:15:45;;;;;;;;;;;;;;;6.00;100.00;99908.75;4972357;28;20024;-85
2023/08/22 18:18:11;;;;;;;;;;;;;;;6.07;100.00;99913.88;4972809;28;19922;-86
2023/08/22 18:20:36;;;;;;;;;;;;;;;6.08;100.00;99920.84;4968560;28;19933;-85
2023/08/22 18:23:01;;;;;;;;;;;;;;;5.97;100.00;99918.50;4970852;28;19926;-85
2023/08/22 18:25:26;;;;;;;;;;;;;;;5.99;100.00;99916.69;4969763;28;20016;-83
2023/08/22 18:27:52;;;;;;;;;;;;;;;5.91;100.00;99914.19;4969164;28;19926;-86
2023/08/22 18:30:22;;;;;;;;;;;;;;;5.92;100.00;99921.19;4973175;28;19976;-85
2023/08/22 18:32:47;;;;;;;;;;;;;;;5.98;100.00;99920.19;4971550;28;20028;-86
2023/08/22 18:35:12;;;;;;;;;;;;;;;6.03;100.00;99921.00;4969646;28;20013;-86
2023/08/22 18:37:39;;;;;;;;;;;;;;;6.04;100.00;99921.84;4969757;28;19922;-86
2023/08/22 18:40:13;;;;;;;;;;;;;;;5.97;100.00;99921.97;4971798;28;20280;-86
2023/08/22 18:42:43;;;;;;;;;;;;;;;5.96;100.00;99933.38;4970709;28;22170;-86
2023/08/22 18:45:08;;;;;;;;;;;;;;;5.96;100.00;99933.38;4972785;28;19929;-83
2023/08/22 18:47:45;;;;;;;;;;;;;;;6.02;100.00;99929.78;4972004;28;20337;-89
2023/08/22 18:50:10;;;;;;;;;;;;;;;6.07;100.00;99930.53;4971491;28;19922;-85
2023/08/22 18:52:44;;;;;;;;;;;;;;;6.25;100.00;99934.50;4971370;28;19933;-85
2023/08/22 18:55:10;;;;;;;;;;;;;;;5.97;100.00;99936.91;4968545;28;19922;-86
2023/08/22 18:57:35;;;;;;;;;;;;;;;6.14;100.00;99936.50;4973039;28;20432;-86
2023/08/22 19:00:03;;;;;;;;;;;;;;;6.04;100.00;99941.13;4971636;28;19976;-88
2023/08/22 19:02:28;;;;;;;;;;;;;;;6.05;100.00;99952.50;4971156;28;19922;-87
2023/08/22 19:04:54;;;;;;;;;;;;;;;6.00;100.00;99966.63;4971148;28;20388;-85
2023/08/22 19:07:19;;;;;;;;;;;;;;;6.06;100.00;99962.13;4970104;28;19934;-86
2023/08/22 19:09:45;;;;;;;;;;;;;;;6.04;100.00;99971.81;4969510;28;19929;-92
2023/08/22 19:12:10;;;;;;;;;;;;;;;5.90;100.00;99975.56;4968917;28;19926;-86
2023/08/22 19:14:35;;;;;;;;;;;;;;;5.98;100.00;99978.06;4971523;28;19930;-86
2023/08/22 19:17:01;;;;;;;;;;;;;;;5.95;100.00;99978.97;4971676;28;19926;-87
2023/08/22 19:19:26;;;;;;;;;;;;;;;5.91;100.00;99986.97;4972023;28;19918;-84
2023/08/22 19:21:51;;;;;;;;;;;;;;;5.97;100.00;99997.41;4972804;28;20412;-88
2023/08/22 19:24:18;;;;;;;;;;;;;;;5.84;100.00;99991.50;4970529;28;19918;-86
2023/08/22 19:26:44;;;;;;;;;;;;;;;5.97;100.00;99990.38;4972755;28;20370;-87
2023/08/22 19:29:09;;;;;;;;;;;;;;;5.89;100.00;99994.88;4971565;28;19929;-88
2023/08/22 19:31:35;;;;;;;;;;;;;;;5.88;100.00;99984.41;4973289;28;19925;-88
2023/08/22 19:34:00;;;;;;;;;;;;;;;5.90;100.00;99983.44;4972924;28;19918;-85
2023/08/22 19:36:26;;;;;;;;;;;;;;;5.83;100.00;99990.59;4972857;28;20001;-85
2023/08/22 19:38:51;;;;;;;;;;;;;;;5.87;100.00;99986.16;4971540;28;19928;-89
2023/08/22 19:41:16;;;;;;;;;;;;;;;5.88;100.00;99992.28;4972911;28;20354;-86
2023/08/22 19:43:42;;;;;;;;;;;;;;;5.75;100.00;99987.28;4975725;28;19922;-84
2023/08/22 19:46:09;;;;;;;;;;;;;;;5.82;100.00;99996.78;4975231;28;19922;-83
2023/08/22 19:48:34;;;;;;;;;;;;;;;5.87;100.00;99994.06;4976801;28;20005;-85
2023/08/22 19:51:02;;;;;;;;;;;;;;;5.85;100.00;99995.84;4976089;28;20017;-85
2023/08/22 19:53:28;;;;;;;;;;;;;;;5.75;100.00;99996.94;4975148;28;19918;-83
2023/08/22 19:55:53;;;;;;;;;;;;;;;5.87;100.00;100001.06;4976060;28;20345;-87
2023/08/22 19:58:18;;;;;;;;;;;;;;;5.85;100.00;100003.72;4975165;28;20334;-85
2023/08/22 20:00:46;;;;;;;;;;;;;;;5.85;100.00;100011.63;4976006;28;20337;-84
2023/08/22 20:03:12;;;;;;;;;;;;;;;5.89;100.00;100004.53;4975624;28;19929;-85
2023/08/22 20:05:37;;;;;;;;;;;;;;;5.79;100.00;100006.47;4975765;28;19914;-85
2023/08/22 20:08:02;;;;;;;;;;;;;;;5.81;100.00;100017.84;4974726;28;19924;-85
2023/08/22 20:10:27;;;;;;;;;;;;;;;5.86;100.00;100013.34;4976035;28;20259;-86
2023/08/22 20:12:53;;;;;;;;;;;;;;;5.87;100.00;100004.59;4975846;28;19914;-86
2023/08/22 20:15:18;;;;;;;;;;;;;;;5.83;100.00;100014.28;4974752;28;19918;-85
2023/08/22 20:17:43;;;;;;;;;;;;;;;5.87;100.00;100011.59;4973288;28;20012;-88
2023/08/22 20:20:09;;;;;;;;;;;;;;;5.86;100.00;100008.09;4973179;28;19930;-84
2023/08/22 20:22:34;;;;;;;;;;;;;;;5.82;100.00;100017.81;4972504;28;20370;-86
2023/08/22 20:24:59;;;;;;;;;;;;;;;5.96;100.00;100014.94;4974360;28;19926;-85
2023/08/22 20:27:25;;;;;;;;;;;;;;;5.91;100.00;100014.13;4974891;28;19922;-86
2023/08/22 20:29:50;;;;;;;;;;;;;;;6.04;100.00;100008.66;4974268;28;20374;-86
2023/08/22 20:32:15;;;;;;;;;;;;;;;5.98;100.00;100007.88;4974241;28;19926;-85